Flight Track Log - Related Links

Times and Time Zones

All times are in EDT time to prevent confusion due to time zone crossing. See the KAP4711 flight status page for this flight to view local times or setup timezone preferences in your user account.

Time Position Orientation Groundspeed Altitude Reporting Facility
EDT Latitude Longitude Course Direction KTS MPH feet Rate Location/Type
Tue 01:28:53 PM 18.4167 -65.9667 62° Northeast 110 127 1,000  Level San Juan Center
Tue 01:29:54 PM 18.4333 -65.9333 62° Northeast 110 127 1,500 496 Climbing San Juan Center
Tue 01:30:54 PM 18.4333 -65.9000 90° East 120 138 2,000 600 Climbing San Juan Center
Tue 01:31:54 PM 18.4333 -65.8833 90° East 100 115 2,700 645 Climbing San Juan Center
Tue 01:32:55 PM 18.4333 -65.8500 90° East 110 127 3,300 595 Climbing San Juan Center
Tue 01:33:55 PM 18.4333 -65.8167 90° East 120 138 3,900 550 Climbing San Juan Center
Tue 01:34:55 PM 18.4333 -65.7833 90° East 110 127 4,400 500 Climbing San Juan Center
Tue 01:35:55 PM 18.4167 -65.7333 109° East 120 138 4,900 496 Climbing San Juan Center
Tue 01:36:56 PM 18.4167 -65.7000 90° East 120 138 5,400 496 Climbing San Juan Center
Tue 01:37:56 PM 18.4167 -65.6667 90° East 130 150 5,900 450 Climbing San Juan Center
Tue 01:38:56 PM 18.4167 -65.6333 90° East 130 150 6,300 397 Climbing San Juan Center
Tue 01:39:57 PM 18.4167 -65.5833 90° East 150 173 6,700 347 Climbing San Juan Center
Tue 01:40:57 PM 18.4167 -65.5500 90° East 140 161 7,000 149 Climbing San Juan Center
Tue 01:41:58 PM 18.4167 -65.5000 90° East 170 196 7,000  Level San Juan Center
Tue 01:42:58 PM 18.4167 -65.4667 90° East 160 184 7,000  Level San Juan Center
Tue 01:43:58 PM 18.4167 -65.4167 90° East 160 184 7,000  Level San Juan Center
Tue 01:44:58 PM 18.4167 -65.3667 90° East 170 196 7,000  Level San Juan Center
Tue 01:45:59 PM 18.4167 -65.3167 90° East 160 184 7,000  Level San Juan Center
Tue 01:46:59 PM 18.4167 -65.2667 90° East 160 184 7,000  Level San Juan Center
Tue 01:47:59 PM 18.4000 -65.2167 109° East 160 184 7,000  Level San Juan Center
Tue 01:48:59 PM 18.4000 -65.1667 90° East 160 184 7,000  Level San Juan Center
Tue 01:49:59 PM 18.4000 -65.1333 90° East 160 184 7,000  Level San Juan Center
Tue 01:51:00 PM 18.4000 -65.0833 90° East 160 184 7,000  Level San Juan Center
Tue 01:52:00 PM 18.4000 -65.0333 90° East 150 173 7,000  Level San Juan Center
Tue 01:53:00 PM 18.4000 -64.9833 90° East 160 184 7,000  Level San Juan Center
Tue 01:54:01 PM 18.4000 -64.9333 90° East 160 184 7,000  Level San Juan Center
Tue 01:55:01 PM 18.4000 -64.8833 90° East 160 184 7,000  Level San Juan Center
Tue 01:56:01 PM 18.4000 -64.8500 90° East 160 184 7,000  Level San Juan Center
Tue 01:57:02 PM 18.4000 -64.8000 90° East 150 173 7,000  Level San Juan Center
Tue 01:58:02 PM 18.4000 -64.7500 90° East 150 173 7,000  Level San Juan Center
Tue 01:59:02 PM 18.3833 -64.7167 118° Southeast 140 161 7,000  Level San Juan Center
Tue 02:00:03 PM 18.4000 -64.6667 71° East 150 173 7,000  Level San Juan Center
Tue 02:01:03 PM 18.4000 -64.6167 90° East 140 161 7,000  Level San Juan Center
Tue 02:02:03 PM 18.4000 -64.5833 90° East 150 173 7,000  Level San Juan Center
Tue 02:03:04 PM 18.4000 -64.5333 90° East 140 161 7,000  Level San Juan Center
Tue 02:04:04 PM 18.4000 -64.5000 90° East 160 184 7,000  Level San Juan Center
Tue 02:05:04 PM 18.4000 -64.4500 90° East 150 173 7,000  Level San Juan Center
Tue 02:06:05 PM 18.4000 -64.4000 90° East 160 184 7,000  Level San Juan Center
Tue 02:07:05 PM 18.4000 -64.3667 90° East 160 184 7,000  Level San Juan Center
Tue 02:08:05 PM 18.3833 -64.3167 109° East 150 173 7,000  Level San Juan Center
Tue 02:09:05 PM 18.3833 -64.2667 90° East 150 173 7,000  Level San Juan Center
Tue 02:10:06 PM 18.3833 -64.2333 90° East 150 173 7,000  Level San Juan Center
Tue 02:11:06 PM 18.4000 -64.1833 71° East 150 173 7,000  Level San Juan Center
Tue 02:12:06 PM 18.3833 -64.1500 118° Southeast 150 173 7,000  Level San Juan Center
Tue 02:13:07 PM 18.3833 -64.1000 90° East 150 173 7,000  Level San Juan Center
Tue 02:14:07 PM 18.4000 -64.0667 62° Northeast 130 150 7,000  Level San Juan Center
Tue 02:15:07 PM 18.3667 -64.0167 125° Southeast 130 150 7,000  Level San Juan Center
Tue 02:16:08 PM 18.3500 -63.9833 118° Southeast 140 161 7,000 -50 Level San Juan Center
Tue 02:17:08 PM 18.3333 -63.9333 109° East 150 173 6,900  Descending San Juan Center
Tue 02:18:08 PM 18.3167 -63.9000 118° Southeast 150 173 7,000 50 Climbing San Juan Center
Tue 02:19:08 PM 18.3167 -63.8500 90° East 150 173 7,000 -99 Level San Juan Center
Tue 02:20:09 PM 18.3000 -63.8167 118° Southeast 160 184 6,800 -298 Descending San Juan Center
Tue 02:21:09 PM 18.3000 -63.7667 90° East 160 184 6,400 -400 Descending San Juan Center
Tue 02:22:09 PM 18.3000 -63.7167 90° East 160 184 6,000 -496 Descending San Juan Center
Tue 02:23:10 PM 18.2833 -63.6667 109° East 160 184 5,400 -590 Descending San Juan Center
Tue 02:25:00 PM 18.2602 -63.5931 108° East  Level FlightAware Approximate
Tue 02:32:00 PM 18.2301 -63.2990 122° Southeast  Level Estimated
Tue 02:33:00 PM 18.1919 -63.2862 162° South  Level FlightAware Approximate
Tue 02:34:00 PM 18.1943 -63.2441 125° Southeast  Level Estimated
Tue 02:35:00 PM 18.1622 -63.2187 143° Southeast  Level FlightAware Approximate
Tue 02:36:00 PM 18.1301 -63.1933 143° Southeast  Level FlightAware Approximate
Tue 02:37:00 PM 18.0981 -63.1679 143° Southeast  Level FlightAware Approximate
Tue 02:38:00 PM 18.1264 -63.1380 25° Northeast  Level Estimated
Tue 02:39:00 PM 18.1305 -63.0960 84° East  Level FlightAware Approximate
Tue 02:40:00 PM 18.1346 -63.0539 84° East  Level FlightAware Approximate
Tue 02:41:00 PM 18.1644 -63.0589 13° North  Level FlightAware Approximate
Tue 02:42:00 PM 18.2000 -63.0500 13° North  Level FlightAware Approximate
Tue 02:43:00 PM 18.2048 -63.0551 13° North  Level Estimated
Tue 02:44:00 PM 18.2000 -63.0500 13° North  Level FlightAware Approximate
Tue 02:45:00 PM 18.2048 -63.0551 13° North  Level Estimated
Tue 02:46:00 PM 18.2000 -63.0500 13° North  Level FlightAware Approximate
Tue 02:47:00 PM 18.2048 -63.0551 13° North  Level Estimated
Tue 02:48:00 PM 18.2000 -63.0500 13° North  Level FlightAware Approximate
Tue 02:49:00 PM 18.2048 -63.0551 13° North  Level Estimated
Tue 02:50:00 PM 18.2000 -63.0500 13° North  Level FlightAware Approximate
Tue 02:51:00 PM 18.2048 -63.0551 13° North  Level Estimated
Tue 02:52:00 PM 18.2000 -63.0500 13° North  Level FlightAware Approximate
Tue 02:53:00 PM 18.2048 -63.0551 13° North  Level Estimated
Tue 02:54:00 PM 18.2000 -63.0500 13° North  Level FlightAware Approximate
Tue 02:55:00 PM 18.2048 -63.0551 13° North  Level Estimated
Tue 02:56:00 PM 18.2000 -63.0500 13° North  Level FlightAware Approximate
Tue 02:57:00 PM 18.2048 -63.0551 13° North  Level Estimated
Tue 02:58:00 PM 18.2000 -63.0500 13° North  Level FlightAware Approximate

Login

Don't have an account? Register now (free) for customized features, flight alerts, and more!